Time;durP1;ratioP1;P1;durP2;ratioP2;P2;SDS_P1;SDS_P2;PMS_P1;PMS_P2;Temp;Humidity;BMP_temperature;BMP_pressure;BME280_temperature;BME280_humidity;BME280_pressure;Samples;Min_cycle;Max_cycle;Signal;HPM_P1;HPM_P2
2023/08/15 00:01:42;;;;;;;0.50;0.20;;;;;;;21.60;100.00;100042.19;5014362;28;20476;-50
2023/08/15 00:04:08;;;;;;;0.50;0.20;;;;;;;21.65;100.00;100048.09;5014133;28;20423;-50
2023/08/15 00:06:34;;;;;;;0.50;0.20;;;;;;;21.68;100.00;100031.66;5014112;28;20499;-51
2023/08/15 00:09:01;;;;;;;0.50;0.20;;;;;;;21.61;100.00;100029.53;5013874;28;20423;-52
2023/08/15 00:11:27;;;;;;;0.50;0.20;;;;;;;21.39;100.00;100024.97;5014016;28;20504;-50
2023/08/15 00:13:56;;;;;;;0.50;0.20;;;;;;;21.56;100.00;100032.63;5013780;28;20934;-51
2023/08/15 00:16:23;;;;;;;0.40;0.20;;;;;;;21.54;100.00;100032.72;5013775;28;20817;-51
2023/08/15 00:18:50;;;;;;;0.50;0.20;;;;;;;21.51;100.00;100015.84;5013915;28;20849;-50
2023/08/15 00:21:16;;;;;;;0.50;0.20;;;;;;;21.40;100.00;100011.31;5013875;28;20887;-51
2023/08/15 00:23:43;;;;;;;0.50;0.20;;;;;;;21.35;100.00;100002.69;5013775;28;20437;-51
2023/08/15 00:26:09;;;;;;;0.50;0.20;;;;;;;21.50;100.00;99996.06;5002428;28;20463;-50
2023/08/15 00:28:36;;;;;;;0.50;0.20;;;;;;;21.59;100.00;100000.75;5013267;28;20785;-50
2023/08/15 00:31:02;;;;;;;0.50;0.30;;;;;;;21.70;100.00;100009.88;5013394;28;20423;-50
2023/08/15 00:33:28;;;;;;;0.50;0.20;;;;;;;21.73;100.00;100015.91;5013617;28;20445;-51
2023/08/15 00:35:55;;;;;;;0.47;0.20;;;;;;;21.78;100.00;100020.94;5011369;28;20430;-52
2023/08/15 00:38:21;;;;;;;0.50;0.20;;;;;;;21.72;100.00;100019.59;5000153;28;20461;-50
2023/08/15 00:40:48;;;;;;;0.40;0.30;;;;;;;21.77;100.00;100020.09;5013586;28;20510;-50
2023/08/15 00:43:17;;;;;;;0.50;0.30;;;;;;;21.80;100.00;100025.28;5003592;28;20488;-50
2023/08/15 00:45:44;;;;;;;0.50;0.20;;;;;;;21.88;100.00;100028.22;5013313;28;20463;-50
2023/08/15 00:48:11;;;;;;;0.50;0.20;;;;;;;21.93;100.00;100018.84;5013569;28;20427;-50
2023/08/15 00:50:40;;;;;;;0.40;0.20;;;;;;;21.75;100.00;100019.34;5011796;28;20449;-50
2023/08/15 00:53:07;;;;;;;0.50;0.20;;;;;;;21.77;100.00;100017.38;5012907;28;21071;-51
2023/08/15 00:55:34;;;;;;;0.50;0.20;;;;;;;21.83;100.00;100010.63;5007682;28;20454;-50
2023/08/15 00:58:01;;;;;;;0.50;0.30;;;;;;;21.62;100.00;100004.19;5013303;28;20449;-50
2023/08/15 01:00:28;;;;;;;0.50;0.20;;;;;;;21.43;100.00;100000.25;5013086;28;20452;-50
2023/08/15 01:02:54;;;;;;;0.50;0.20;;;;;;;21.45;100.00;99998.28;5013012;28;21016;-50
2023/08/15 01:05:21;;;;;;;0.50;0.20;;;;;;;21.57;100.00;99991.06;5012865;28;21041;-51
2023/08/15 01:07:48;;;;;;;0.50;0.30;;;;;;;21.61;100.00;99994.38;5013265;28;20543;-50
2023/08/15 01:10:15;;;;;;;0.50;0.20;;;;;;;21.61;100.00;99997.94;5013093;28;20544;-50
2023/08/15 01:12:54;;;;;;;0.50;0.20;;;;;;;21.53;100.00;100005.81;5012952;28;21060;-50
2023/08/15 01:15:27;;;;;;;0.50;0.20;;;;;;;21.16;100.00;100005.06;5012874;28;20447;-51
2023/08/15 01:18:23;;;;;;;0.50;0.30;;;;;;;21.25;100.00;100004.41;5012725;28;20479;-50
2023/08/15 01:20:50;;;;;;;0.50;0.20;;;;;;;21.47;100.00;100001.72;5005070;28;20448;-51
2023/08/15 01:23:23;;;;;;;0.50;0.23;;;;;;;21.37;100.00;100005.25;5012754;28;20486;-50
2023/08/15 01:25:53;;;;;;;0.50;0.20;;;;;;;21.37;100.00;100000.72;5004442;28;20489;-50
2023/08/15 01:28:20;;;;;;;0.83;0.83;;;;;;;21.43;100.00;100007.50;5009203;28;20461;-50
2023/08/15 01:30:53;;;;;;;0.50;0.20;;;;;;;21.46;100.00;100009.97;5012475;28;20431;-50
2023/08/15 01:33:28;;;;;;;0.50;0.23;;;;;;;21.52;100.00;100015.78;5013079;28;20455;-50
2023/08/15 01:36:03;;;;;;;0.50;0.20;;;;;;;21.48;100.00;100018.81;5009719;28;20419;-50
2023/08/15 01:38:42;;;;;;;0.50;0.27;;;;;;;21.38;100.00;100025.91;5000440;28;20454;-50
2023/08/15 01:41:14;;;;;;;0.47;0.27;;;;;;;21.30;100.00;100026.53;5012580;28;20439;-50
2023/08/15 01:43:42;;;;;;;0.50;0.20;;;;;;;21.26;100.00;100023.19;5002605;28;20928;-51
2023/08/15 01:46:09;;;;;;;0.50;0.20;;;;;;;21.07;100.00;100016.56;5012555;28;20488;-53
2023/08/15 01:48:42;;;;;;;0.40;0.20;;;;;;;21.04;100.00;100033.03;5012589;28;20420;-52
2023/08/15 01:51:10;;;;;;;0.40;0.20;;;;;;;21.15;100.00;100038.50;5012232;28;20535;-53
2023/08/15 01:53:37;;;;;;;0.50;0.20;;;;;;;20.98;100.00;100043.34;5012783;28;20506;-51
2023/08/15 01:56:04;;;;;;;0.50;0.20;;;;;;;20.95;100.00;100048.09;5006285;28;20419;-51
2023/08/15 01:58:30;;;;;;;0.40;0.20;;;;;;;21.13;100.00;100052.13;5011241;28;21035;-51
2023/08/15 02:00:58;;;;;;;0.50;0.20;;;;;;;21.21;100.00;100055.09;5012342;28;20826;-51
2023/08/15 02:03:25;;;;;;;0.40;0.20;;;;;;;21.32;100.00;100078.63;5014638;28;20452;-50
2023/08/15 02:05:52;;;;;;;0.50;0.20;;;;;;;21.21;100.00;100101.03;5016114;28;20896;-50
2023/08/15 02:08:18;;;;;;;0.40;0.20;;;;;;;21.23;100.00;100115.31;5016330;28;20485;-50
2023/08/15 02:10:44;;;;;;;0.40;0.20;;;;;;;21.32;100.00;100105.69;5016390;28;20452;-53
2023/08/15 02:13:11;;;;;;;0.50;0.30;;;;;;;20.99;100.00;100100.97;5016354;28;20427;-51
2023/08/15 02:15:37;;;;;;;0.50;0.30;;;;;;;20.93;100.00;100096.84;5016250;28;20472;-52
2023/08/15 02:18:04;;;;;;;0.50;0.20;;;;;;;21.19;100.00;100110.25;5016031;28;20452;-51
2023/08/15 02:20:31;;;;;;;0.50;0.20;;;;;;;21.35;100.00;100129.78;5016182;28;20425;-51
2023/08/15 02:22:57;;;;;;;0.50;0.20;;;;;;;21.46;100.00;100145.19;5016146;28;20474;-51
2023/08/15 02:25:24;;;;;;;0.50;0.20;;;;;;;21.50;100.00;100141.28;5010602;28;20434;-51
2023/08/15 02:27:50;;;;;;;0.40;0.20;;;;;;;21.48;100.00;100140.53;5008728;28;20952;-51
2023/08/15 02:30:17;;;;;;;0.50;0.20;;;;;;;21.35;100.00;100137.88;5015780;28;20427;-51
2023/08/15 02:32:44;;;;;;;0.40;0.20;;;;;;;21.38;100.00;100116.06;5015605;28;20480;-51
2023/08/15 02:35:13;;;;;;;0.40;0.20;;;;;;;21.26;100.00;100120.53;5013591;28;20426;-51
2023/08/15 02:37:39;;;;;;;0.40;0.20;;;;;;;21.13;100.00;100099.91;5002857;28;20506;-51
2023/08/15 02:40:08;;;;;;;0.50;0.20;;;;;;;21.10;100.00;100108.25;5015773;28;20518;-50
2023/08/15 02:42:34;;;;;;;0.50;0.20;;;;;;;21.33;100.00;100106.53;5004946;28;20500;-50
2023/08/15 02:45:02;;;;;;;0.50;0.20;;;;;;;21.47;100.00;100095.53;5004384;28;20427;-51
2023/08/15 02:47:28;;;;;;;0.40;0.20;;;;;;;21.47;100.00;100072.03;5015188;28;20579;-51
2023/08/15 02:49:55;;;;;;;0.47;0.20;;;;;;;21.06;100.00;100047.28;5015506;28;20747;-51
2023/08/15 02:52:21;;;;;;;0.40;0.20;;;;;;;21.07;100.00;100030.94;5015522;28;20451;-51
2023/08/15 02:54:48;;;;;;;0.40;0.20;;;;;;;21.16;100.00;100013.19;5015127;28;20449;-51
2023/08/15 02:57:14;;;;;;;0.50;0.20;;;;;;;21.08;100.00;100000.22;5010681;28;20451;-51
2023/08/15 02:59:41;;;;;;;0.50;0.20;;;;;;;21.17;100.00;99969.81;5015350;28;20506;-51
2023/08/15 03:02:09;;;;;;;0.77;0.77;;;;;;;21.14;100.00;99948.41;5014917;28;21018;-52
2023/08/15 03:04:36;;;;;;;0.40;0.20;;;;;;;21.00;100.00;99933.28;5015519;28;20510;-51
2023/08/15 03:07:02;;;;;;;0.50;0.20;;;;;;;21.18;100.00;99967.97;5015027;28;20492;-51
2023/08/15 03:09:29;;;;;;;0.40;0.30;;;;;;;21.17;100.00;99982.44;5015201;28;20459;-50
2023/08/15 03:11:55;;;;;;;0.40;0.20;;;;;;;21.38;100.00;99969.13;5015049;28;20475;-51
2023/08/15 03:14:22;;;;;;;0.40;0.20;;;;;;;21.28;100.00;99971.72;5014434;28;20451;-51
2023/08/15 03:16:48;;;;;;;0.40;0.20;;;;;;;21.48;100.00;99989.06;5015039;28;20452;-51
2023/08/15 03:19:14;;;;;;;0.40;0.20;;;;;;;21.59;100.00;99994.50;5014828;28;20499;-51
2023/08/15 03:21:41;;;;;;;0.40;0.20;;;;;;;21.45;100.00;100019.91;5014633;28;21015;-51
2023/08/15 03:24:07;;;;;;;0.40;0.30;;;;;;;21.45;100.00;100019.06;5014945;28;20453;-51
2023/08/15 03:26:34;;;;;;;0.40;0.20;;;;;;;21.31;100.00;100033.66;5002575;28;20615;-50
2023/08/15 03:29:00;;;;;;;0.50;0.20;;;;;;;21.22;100.00;100062.22;5014677;28;20435;-51
2023/08/15 03:31:27;;;;;;;0.40;0.20;;;;;;;21.27;100.00;100097.06;5014784;28;20571;-50
2023/08/15 03:33:53;;;;;;;0.50;0.20;;;;;;;21.20;100.00;100110.13;5014822;28;20511;-50
2023/08/15 03:36:20;;;;;;;0.40;0.20;;;;;;;21.31;100.00;100130.13;5011556;28;20431;-50
2023/08/15 03:38:46;;;;;;;0.40;0.20;;;;;;;21.28;100.00;100140.22;5004753;28;20428;-50
2023/08/15 03:41:13;;;;;;;0.40;0.20;;;;;;;21.31;100.00;100190.50;5011473;28;20535;-50
2023/08/15 03:43:39;;;;;;;0.40;0.20;;;;;;;21.16;100.00;100172.69;4994492;28;20539;-50
2023/08/15 03:46:06;;;;;;;0.40;0.20;;;;;;;21.27;100.00;100159.25;5014589;28;20463;-51
2023/08/15 03:48:33;;;;;;;0.60;0.50;;;;;;;21.32;100.00;100180.53;5014409;28;20518;-51
2023/08/15 03:51:00;;;;;;;0.40;0.20;;;;;;;21.34;100.00;100175.88;5014437;28;20459;-51
2023/08/15 03:53:27;;;;;;;0.50;0.20;;;;;;;21.59;100.00;100209.06;4998095;28;20957;-50
2023/08/15 03:55:54;;;;;;;0.40;0.20;;;;;;;21.77;100.00;100197.81;4997614;28;20448;-50
2023/08/15 03:58:22;;;;;;;0.40;0.20;;;;;;;21.79;100.00;100179.63;5014026;28;20954;-50
2023/08/15 04:00:49;;;;;;;0.40;0.20;;;;;;;21.86;100.00;100178.19;5014135;28;20534;-51
2023/08/15 04:03:16;;;;;;;0.40;0.20;;;;;;;21.91;100.00;100173.25;5014359;28;20423;-51
2023/08/15 04:05:46;;;;;;;0.40;0.20;;;;;;;21.95;100.00;100188.31;5013944;28;20925;-50
2023/08/15 04:08:14;;;;;;;0.40;0.20;;;;;;;21.83;100.00;100216.31;5014073;28;20430;-50
2023/08/15 04:10:43;;;;;;;0.50;0.30;;;;;;;21.89;100.00;100251.88;5013815;28;20419;-51
2023/08/15 04:13:10;;;;;;;0.40;0.20;;;;;;;21.86;100.00;100245.84;5014115;28;20427;-50
2023/08/15 04:15:37;;;;;;;0.40;0.20;;;;;;;21.80;100.00;100203.88;5013883;28;20459;-50
2023/08/15 04:18:05;;;;;;;0.40;0.20;;;;;;;21.90;100.00;100163.41;5013785;28;20938;-51
2023/08/15 04:20:34;;;;;;;0.40;0.20;;;;;;;21.83;100.00;100165.75;5013711;28;20534;-51
2023/08/15 04:23:01;;;;;;;0.40;0.20;;;;;;;21.92;100.00;100161.44;5005072;28;20470;-51
2023/08/15 04:25:27;;;;;;;0.40;0.20;;;;;;;21.97;100.00;100118.66;5013192;28;20490;-51
2023/08/15 04:27:57;;;;;;;0.50;0.20;;;;;;;22.03;100.00;100084.81;5013091;28;20538;-52
2023/08/15 04:30:23;;;;;;;0.40;0.20;;;;;;;22.09;100.00;100065.44;4987646;28;20960;-51
2023/08/15 04:32:49;;;;;;;0.50;0.20;;;;;;;21.80;100.00;100063.16;5013201;28;21015;-50
2023/08/15 04:35:16;;;;;;;0.40;0.20;;;;;;;22.00;100.00;100058.84;5011237;28;20427;-51
2023/08/15 04:37:42;;;;;;;2.03;1.83;;;;;;;22.01;100.00;100065.13;5000031;28;20478;-51
2023/08/15 04:40:13;;;;;;;0.40;0.30;;;;;;;22.02;100.00;100061.44;5013693;28;20423;-51
2023/08/15 04:42:40;;;;;;;0.40;0.20;;;;;;;21.83;100.00;100059.34;5003431;28;20510;-51
2023/08/15 04:45:08;;;;;;;0.40;0.20;;;;;;;21.72;100.00;100053.91;5013346;28;20438;-51
2023/08/15 04:47:35;;;;;;;0.40;0.20;;;;;;;21.84;100.00;100047.53;5013163;28;20474;-51
2023/08/15 04:50:02;;;;;;;0.50;0.20;;;;;;;21.51;100.00;100073.53;5013235;28;20427;-50
2023/08/15 04:52:28;;;;;;;0.40;0.20;;;;;;;21.57;100.00;100073.06;5010828;28;20481;-50
2023/08/15 04:54:55;;;;;;;0.50;0.30;;;;;;;21.66;100.00;100062.53;5013385;28;20532;-51
2023/08/15 04:57:21;;;;;;;0.40;0.20;;;;;;;21.67;100.00;100075.06;5010920;28;20424;-50
2023/08/15 04:59:48;;;;;;;0.40;0.20;;;;;;;21.69;100.00;100067.69;5002385;28;21009;-49
2023/08/15 05:02:14;;;;;;;0.40;0.20;;;;;;;20.94;100.00;100065.28;5012989;28;20479;-47
2023/08/15 05:04:41;;;;;;;0.40;0.20;;;;;;;20.99;100.00;100065.81;5004119;28;20424;-48
2023/08/15 05:07:07;;;;;;;0.40;0.20;;;;;;;21.31;100.00;100074.22;4992995;28;20476;-48
2023/08/15 05:09:34;;;;;;;0.47;0.20;;;;;;;21.38;100.00;100074.59;5002446;28;20449;-48
2023/08/15 05:12:00;;;;;;;0.40;0.20;;;;;;;21.26;100.00;100071.00;5009853;28;20531;-54
2023/08/15 05:14:26;;;;;;;0.50;0.30;;;;;;;21.58;100.00;100071.22;5002709;28;20452;-48
2023/08/15 05:16:53;;;;;;;0.40;0.20;;;;;;;21.65;100.00;100094.09;5012646;28;20444;-49
2023/08/15 05:19:20;;;;;;;0.40;0.20;;;;;;;21.81;100.00;100094.66;5012692;28;20782;-50
2023/08/15 05:21:46;;;;;;;0.40;0.20;;;;;;;21.81;100.00;100091.94;5012491;28;20443;-48
2023/08/15 05:24:13;;;;;;;0.40;0.20;;;;;;;22.17;100.00;100082.75;5004374;28;20456;-49
2023/08/15 05:26:39;;;;;;;0.47;0.30;;;;;;;22.26;100.00;100091.16;5012725;28;20849;-49
2023/08/15 05:29:05;;;;;;;0.40;0.20;;;;;;;22.53;100.00;100093.47;5002615;28;20439;-48
2023/08/15 05:31:32;;;;;;;0.40;0.20;;;;;;;22.60;100.00;100100.97;5009569;28;20497;-49
2023/08/15 05:33:59;;;;;;;0.40;0.20;;;;;;;22.47;100.00;100111.94;5002180;28;20473;-48
2023/08/15 05:36:25;;;;;;;0.40;0.20;;;;;;;22.39;100.00;100110.84;4992990;28;20424;-48
2023/08/15 05:38:51;;;;;;;0.40;0.20;;;;;;;22.35;100.00;100114.78;5003051;28;20459;-48
2023/08/15 05:41:18;;;;;;;0.40;0.20;;;;;;;22.47;100.00;100108.38;5012211;28;20447;-48
2023/08/15 05:43:44;;;;;;;0.50;0.23;;;;;;;22.73;100.00;100101.69;5003188;28;20455;-49
2023/08/15 05:46:11;;;;;;;0.40;0.20;;;;;;;22.61;100.00;100104.53;5012370;28;20423;-48
2023/08/15 05:48:38;;;;;;;0.40;0.20;;;;;;;22.83;100.00;100101.81;5012400;28;20424;-48
2023/08/15 05:51:04;;;;;;;0.40;0.20;;;;;;;22.85;100.00;100117.97;5012440;28;20468;-47
2023/08/15 05:53:31;;;;;;;0.40;0.20;;;;;;;22.91;100.00;100125.59;5010238;28;20758;-47
2023/08/15 05:55:57;;;;;;;0.50;0.30;;;;;;;23.09;100.00;100129.50;5012337;28;20423;-47
2023/08/15 05:58:24;;;;;;;0.50;0.20;;;;;;;23.58;100.00;100133.53;5012500;28;20430;-47
2023/08/15 06:00:53;;;;;;;0.50;0.20;;;;;;;23.62;100.00;100125.00;4999188;28;20923;-47
2023/08/15 06:03:20;;;;;;;0.50;0.20;;;;;;;23.75;100.00;100129.38;5012315;28;20459;-48
2023/08/15 06:06:06;;;;;;;0.50;0.20;;;;;;;24.25;98.11;100152.13;4987587;28;20447;-48
2023/08/15 06:08:33;;;;;;;0.50;0.30;;;;;;;24.42;97.36;100156.13;4999009;28;20485;-48
2023/08/15 06:10:59;;;;;;;0.50;0.20;;;;;;;24.74;97.49;100161.41;5004733;28;20822;-49
2023/08/15 06:13:26;;;;;;;0.50;0.23;;;;;;;24.73;94.70;100159.69;4992559;28;20453;-48
2023/08/15 06:15:52;;;;;;;0.50;0.27;;;;;;;24.99;94.68;100165.50;4992637;28;20969;-49
2023/08/15 06:18:19;;;;;;;0.60;0.50;;;;;;;24.69;95.41;100171.84;4993286;28;20485;-48
2023/08/15 06:20:45;;;;;;;0.50;0.20;;;;;;;24.81;95.67;100170.75;5004641;28;20454;-49
2023/08/15 06:23:12;;;;;;;0.50;0.20;;;;;;;24.39;98.39;100175.41;5006830;28;20447;-48
2023/08/15 06:25:40;;;;;;;0.50;0.30;;;;;;;24.70;97.78;100166.25;5012452;28;20437;-48
2023/08/15 06:28:08;;;;;;;0.50;0.20;;;;;;;24.70;96.60;100174.44;5010628;28;20489;-49
2023/08/15 06:30:35;;;;;;;0.50;0.20;;;;;;;24.72;97.22;100166.97;5000755;28;20452;-48
2023/08/15 06:33:01;;;;;;;0.50;0.20;;;;;;;24.60;96.22;100161.78;5011845;28;20483;-49
2023/08/15 06:35:28;;;;;;;0.50;0.20;;;;;;;24.35;96.40;100163.94;5009641;28;20452;-48
2023/08/15 06:37:55;;;;;;;0.50;0.20;;;;;;;24.25;97.66;100154.84;4999074;28;20449;-48
2023/08/15 06:40:22;;;;;;;0.47;0.20;;;;;;;24.32;97.60;100158.78;5012138;28;20419;-49
2023/08/15 06:42:48;;;;;;;0.50;0.20;;;;;;;24.34;97.73;100161.38;4998509;28;20573;-48
2023/08/15 06:45:16;;;;;;;0.50;0.20;;;;;;;24.32;96.76;100168.78;5012250;28;20449;-48
2023/08/15 06:47:43;;;;;;;0.50;0.30;;;;;;;24.49;96.84;100168.16;5012024;28;20488;-48
2023/08/15 06:50:09;;;;;;;0.50;0.20;;;;;;;24.35;94.51;100153.06;5013710;28;20475;-49
2023/08/15 06:52:36;;;;;;;0.50;0.20;;;;;;;24.58;94.39;100152.91;5002242;28;20531;-48
2023/08/15 06:55:04;;;;;;;0.47;0.20;;;;;;;24.81;95.47;100154.44;5015665;28;21025;-48
2023/08/15 06:57:33;;;;;;;0.50;0.20;;;;;;;24.65;92.62;100159.50;4998603;28;20452;-49
2023/08/15 07:00:01;;;;;;;0.50;0.30;;;;;;;24.68;93.96;100151.94;5007417;28;20879;-49
2023/08/15 07:02:31;;;;;;;0.50;0.20;;;;;;;24.66;94.05;100166.66;5015866;28;20555;-49
2023/08/15 07:04:57;;;;;;;0.50;0.20;;;;;;;25.12;93.30;100165.28;5015556;28;20444;-49
2023/08/15 07:07:24;;;;;;;0.50;0.30;;;;;;;24.89;92.66;100168.19;5015154;28;20492;-49
2023/08/15 07:09:50;;;;;;;0.50;0.20;;;;;;;24.70;96.00;100170.84;5003354;28;20544;-48
2023/08/15 07:12:18;;;;;;;0.50;0.40;;;;;;;24.67;93.78;100180.13;5008787;28;20496;-48
2023/08/15 07:14:48;;;;;;;0.50;0.20;;;;;;;24.75;95.81;100180.28;5007081;28;20820;-48
2023/08/15 07:17:14;;;;;;;0.50;0.23;;;;;;;24.75;97.70;100187.59;5013815;28;20455;-48
2023/08/15 07:19:41;;;;;;;0.50;0.27;;;;;;;24.57;97.60;100186.53;5002781;28;20455;-48
2023/08/15 07:22:07;;;;;;;0.50;0.20;;;;;;;24.76;92.03;100183.88;5012463;28;20638;-48
2023/08/15 07:24:34;;;;;;;0.50;0.20;;;;;;;24.45;93.83;100186.59;5007253;28;20440;-48
2023/08/15 07:27:00;;;;;;;0.50;0.30;;;;;;;24.59;94.23;100193.53;5014843;28;20520;-48
2023/08/15 07:29:27;;;;;;;0.50;0.20;;;;;;;24.68;94.25;100200.03;5014860;28;20564;-48
2023/08/15 07:31:53;;;;;;;0.50;0.20;;;;;;;24.73;96.16;100205.91;4996198;28;20536;-49
2023/08/15 07:34:20;;;;;;;0.50;0.20;;;;;;;24.87;93.33;100204.69;5007732;28;20506;-49
2023/08/15 07:36:47;;;;;;;0.50;0.20;;;;;;;25.00;93.84;100203.47;5005942;28;20430;-49
2023/08/15 07:39:14;;;;;;;0.50;0.20;;;;;;;25.31;93.54;100212.41;5008468;28;20532;-49
2023/08/15 07:41:41;;;;;;;0.50;0.30;;;;;;;24.92;92.15;100222.28;5011337;28;20477;-49
2023/08/15 07:44:08;;;;;;;0.50;0.20;;;;;;;24.98;92.13;100231.78;5008986;28;20448;-49
2023/08/15 07:46:34;;;;;;;2.17;1.43;;;;;;;25.23;89.60;100235.91;5014561;28;20551;-49
2023/08/15 07:49:01;;;;;;;0.50;0.30;;;;;;;25.71;89.49;100226.97;5014146;28;20571;-49
2023/08/15 07:51:27;;;;;;;0.50;0.23;;;;;;;25.81;88.74;100230.59;5014836;28;20551;-49
2023/08/15 07:53:54;;;;;;;0.50;0.20;;;;;;;25.63;88.84;100227.66;5013121;28;20510;-56
2023/08/15 07:56:20;;;;;;;0.50;0.20;;;;;;;25.63;89.81;100216.75;5014381;28;20456;-48
2023/08/15 07:58:47;;;;;;;0.50;0.20;;;;;;;25.70;90.52;100212.50;5014419;28;20544;-49
2023/08/15 08:01:13;;;;;;;0.50;0.20;;;;;;;25.95;88.54;100206.50;5014268;28;20482;-48
2023/08/15 08:03:42;;;;;;;0.50;0.20;;;;;;;25.93;88.44;100205.78;5014179;28;20456;-49
2023/08/15 08:06:09;;;;;;;0.50;0.30;;;;;;;26.62;87.09;100204.66;5013982;28;20536;-49
2023/08/15 08:08:55;;;;;;;0.80;0.80;;;;;;;25.86;89.94;100206.50;5013726;28;20495;-48
2023/08/15 08:11:22;;;;;;;0.50;0.20;;;;;;;25.96;88.52;100213.66;5014311;28;20559;-48
2023/08/15 08:13:49;;;;;;;0.50;0.30;;;;;;;26.31;87.90;100198.53;5014072;28;20535;-49
2023/08/15 08:16:17;;;;;;;0.50;0.30;;;;;;;26.33;89.26;100209.31;5014031;28;20449;-50
2023/08/15 08:18:43;;;;;;;0.50;0.30;;;;;;;26.76;87.93;100211.50;5015626;28;20451;-49
2023/08/15 08:21:11;;;;;;;0.50;0.30;;;;;;;26.46;86.54;100218.06;5014064;28;20553;-49
2023/08/15 08:23:38;;;;;;;0.50;0.30;;;;;;;26.62;85.71;100215.56;5006374;28;20456;-49
2023/08/15 08:26:04;;;;;;;0.50;0.30;;;;;;;26.95;85.71;100218.72;5013536;28;20775;-49
2023/08/15 08:28:31;;;;;;;0.50;0.30;;;;;;;27.12;85.77;100217.97;4981303;28;20487;-49
2023/08/15 08:30:58;;;;;;;0.50;0.20;;;;;;;26.75;86.56;100215.25;5007212;28;20456;-50
2023/08/15 08:33:28;;;;;;;0.50;0.30;;;;;;;26.50;86.82;100216.75;5014076;28;20441;-49
2023/08/15 08:35:56;;;;;;;0.50;0.30;;;;;;;26.71;85.21;100225.56;5011353;28;20452;-49
2023/08/15 08:38:22;;;;;;;0.50;0.30;;;;;;;26.63;87.75;100222.75;5000055;28;20853;-49
2023/08/15 08:40:55;;;;;;;0.50;0.30;;;;;;;27.04;86.08;100216.00;5013308;28;20448;-48
2023/08/15 08:43:22;;;;;;;0.50;0.30;;;;;;;26.99;85.18;100225.59;5003586;28;20464;-49
2023/08/15 08:45:50;;;;;;;0.50;0.20;;;;;;;27.02;84.79;100220.75;5013291;28;20941;-49
2023/08/15 08:48:18;;;;;;;0.50;0.30;;;;;;;27.08;83.10;100222.88;5012446;28;20492;-48
2023/08/15 08:50:45;;;;;;;0.50;0.30;;;;;;;27.03;85.52;100216.16;5012987;28;21013;-49
2023/08/15 08:53:11;;;;;;;0.50;0.30;;;;;;;27.17;84.92;100225.72;5013247;28;20484;-49
2023/08/15 08:55:39;;;;;;;0.50;0.30;;;;;;;27.50;83.93;100229.66;5013289;28;20476;-49
2023/08/15 08:58:10;;;;;;;0.50;0.30;;;;;;;27.38;81.31;100231.75;5013144;28;20544;-49
2023/08/15 09:00:39;;;;;;;1.53;1.43;;;;;;;27.71;82.46;100222.09;5013485;28;20452;-49
2023/08/15 09:03:06;;;;;;;0.50;0.30;;;;;;;27.95;82.11;100226.91;5013122;28;20477;-48
2023/08/15 09:05:32;;;;;;;0.50;0.30;;;;;;;27.45;82.00;100232.88;5013117;28;20937;-49
2023/08/15 09:08:00;;;;;;;0.50;0.27;;;;;;;27.77;83.30;100234.25;5012909;28;20485;-49
2023/08/15 09:10:26;;;;;;;0.50;0.30;;;;;;;27.94;83.25;100228.78;5012987;28;20543;-49
2023/08/15 09:12:56;;;;;;;0.50;0.20;;;;;;;27.52;82.58;100238.56;5012299;28;20473;-49
2023/08/15 09:15:23;;;;;;;0.50;0.30;;;;;;;27.71;83.59;100235.75;5013121;28;20472;-48
2023/08/15 09:17:57;;;;;;;0.50;0.20;;;;;;;27.78;82.68;100236.81;5012981;28;20444;-49
2023/08/15 09:20:24;;;;;;;0.50;0.30;;;;;;;27.83;81.43;100234.50;5012893;28;20445;-48
2023/08/15 09:22:54;;;;;;;0.50;0.30;;;;;;;27.76;80.49;100240.72;5012898;28;20504;-49
2023/08/15 09:25:20;;;;;;;0.50;0.20;;;;;;;27.80;80.98;100250.31;4987058;28;20830;-51
2023/08/15 09:27:47;;;;;;;0.50;0.30;;;;;;;27.91;81.67;100240.03;5013022;28;20550;-52
2023/08/15 09:30:16;;;;;;;0.50;0.30;;;;;;;27.95;82.93;100240.56;5000102;28;20480;-51
2023/08/15 09:32:44;;;;;;;0.50;0.30;;;;;;;27.95;82.01;100238.69;5012462;28;20482;-50
2023/08/15 09:35:13;;;;;;;0.50;0.30;;;;;;;27.99;81.99;100242.84;5010231;28;20506;-51
2023/08/15 09:37:44;;;;;;;0.50;0.30;;;;;;;27.99;79.76;100247.44;4999403;28;20962;-50
2023/08/15 09:40:14;;;;;;;0.50;0.30;;;;;;;27.90;80.04;100251.97;5012805;28;20464;-51
2023/08/15 09:42:41;;;;;;;0.50;0.30;;;;;;;27.88;80.87;100243.06;5002901;28;20477;-50
2023/08/15 09:45:09;;;;;;;0.50;0.30;;;;;;;28.00;82.55;100247.28;5012702;28;20448;-50
2023/08/15 09:47:37;;;;;;;0.50;0.30;;;;;;;28.33;81.34;100261.25;5012333;28;20491;-52
2023/08/15 09:50:09;;;;;;;0.50;0.30;;;;;;;28.26;81.74;100262.91;5012483;28;20806;-50
2023/08/15 09:52:39;;;;;;;0.50;0.30;;;;;;;27.88;81.36;100250.41;5012282;28;20884;-50
2023/08/15 09:55:08;;;;;;;0.50;0.30;;;;;;;27.87;80.45;100249.56;4996400;28;20457;-49
2023/08/15 09:57:35;;;;;;;0.50;0.30;;;;;;;27.86;84.53;100249.72;5010361;28;20539;-49
2023/08/15 10:00:04;;;;;;;0.50;0.20;;;;;;;27.69;86.42;100249.56;5012631;28;20452;-49
2023/08/15 10:02:31;;;;;;;0.50;0.30;;;;;;;27.33;86.39;100253.19;5012268;28;20473;-49
2023/08/15 10:05:03;;;;;;;0.50;0.30;;;;;;;26.89;87.47;100252.09;5012378;28;20456;-49
2023/08/15 10:07:32;;;;;;;0.50;0.30;;;;;;;27.03;89.38;100251.63;5012229;28;20535;-49
2023/08/15 10:10:03;;;;;;;0.50;0.30;;;;;;;26.96;92.41;100261.38;5012309;28;20453;-49
2023/08/15 10:12:31;;;;;;;0.50;0.27;;;;;;;26.89;91.95;100263.00;5012336;28;20474;-49
2023/08/15 10:14:59;;;;;;;0.50;0.30;;;;;;;26.92;88.10;100269.00;5012332;28;20449;-49
2023/08/15 10:17:28;;;;;;;0.50;0.30;;;;;;;26.98;91.48;100281.19;5012097;28;20968;-50
2023/08/15 10:20:00;;;;;;;0.50;0.30;;;;;;;26.77;95.25;100303.25;5012142;28;20453;-48
2023/08/15 10:22:29;;;;;;;0.50;0.30;;;;;;;26.66;95.85;100314.31;5012171;28;21027;-49
2023/08/15 10:25:27;;;;;;;0.50;0.30;;;;;;;26.47;97.77;100326.13;5013556;28;20499;-49
2023/08/15 10:27:55;;;;;;;0.50;0.30;;;;;;;26.34;93.43;100320.06;5015894;28;20494;-51
2023/08/15 10:30:30;;;;;;;0.50;0.30;;;;;;;26.18;91.25;100323.38;5016269;28;20555;-48
2023/08/15 10:33:11;;;;;;;0.50;0.30;;;;;;;25.85;95.83;100305.56;5015578;28;20479;-49
2023/08/15 10:35:49;;;;;;;0.50;0.30;;;;;;;25.75;97.60;100331.91;5013731;28;20480;-49
2023/08/15 10:38:39;;;;;;;0.50;0.30;;;;;;;25.64;97.06;100339.19;5002345;28;20495;-49
2023/08/15 10:41:05;;;;;;;0.50;0.30;;;;;;;25.53;95.61;100360.19;5015794;28;20468;-49
2023/08/15 10:43:36;;;;;;;0.50;0.30;;;;;;;25.15;96.83;100355.44;5006162;28;20547;-49
2023/08/15 10:46:04;;;;;;;0.50;0.30;;;;;;;25.02;99.76;100353.81;5015642;28;20522;-49
2023/08/15 10:48:44;;;;;;;0.50;0.30;;;;;;;24.90;100.00;100353.97;5015668;28;21063;-50
2023/08/15 10:51:34;;;;;;;0.50;0.23;;;;;;;24.68;100.00;100338.69;5015777;28;20575;-49
2023/08/15 10:54:04;;;;;;;0.50;0.27;;;;;;;24.56;99.32;100335.16;5015452;28;20458;-49
2023/08/15 10:56:33;;;;;;;0.50;0.30;;;;;;;24.20;99.58;100331.84;5015643;28;20539;-48
2023/08/15 10:59:04;;;;;;;0.50;0.30;;;;;;;24.03;99.28;100331.56;5015225;28;21055;-49
2023/08/15 11:01:31;;;;;;;0.50;0.20;;;;;;;24.03;99.32;100334.25;5015672;28;20469;-48
2023/08/15 11:03:58;;;;;;;0.50;0.20;;;;;;;23.94;100.00;100344.91;5015382;28;20455;-49
2023/08/15 11:06:25;;;;;;;0.50;0.20;;;;;;;23.89;100.00;100347.16;5015293;28;21032;-49
2023/08/15 11:08:53;;;;;;;0.50;0.20;;;;;;;23.73;100.00;100351.25;5015063;28;20584;-49
2023/08/15 11:11:20;;;;;;;0.50;0.20;;;;;;;23.58;100.00;100356.09;5015236;28;20471;-48
2023/08/15 11:13:49;;;;;;;0.50;0.20;;;;;;;23.49;100.00;100346.81;5015247;28;20463;-49
2023/08/15 11:16:18;;;;;;;0.50;0.30;;;;;;;23.52;100.00;100342.97;5015510;28;20877;-48
2023/08/15 11:18:45;;;;;;;0.50;0.20;;;;;;;23.54;100.00;100335.56;5015372;28;20455;-48
2023/08/15 11:21:13;;;;;;;0.50;0.30;;;;;;;23.50;100.00;100313.25;5015224;28;20484;-48
2023/08/15 11:23:41;;;;;;;0.50;0.30;;;;;;;23.59;100.00;100317.09;5014771;28;20535;-48
2023/08/15 11:26:13;;;;;;;0.50;0.30;;;;;;;23.63;100.00;100305.00;5014950;28;20453;-48